sensor_id;sensor_type;location;lat;lon;timestamp;pressure;altitude;pressure_sealevel;temperature;humidity
3206;BME280;1615;53.602;11.418;2023-02-16T00:03:38;101892.72;;;4.36;100.00
3206;BME280;1615;53.602;11.418;2023-02-16T00:06:04;101879.47;;;4.28;100.00
3206;BME280;1615;53.602;11.418;2023-02-16T00:08:29;101900.88;;;4.36;100.00
3206;BME280;1615;53.602;11.418;2023-02-16T00:10:54;101895.28;;;4.31;100.00
3206;BME280;1615;53.602;11.418;2023-02-16T00:13:38;101906.13;;;4.31;100.00
3206;BME280;1615;53.602;11.418;2023-02-16T00:16:22;101890.47;;;4.33;100.00
3206;BME280;1615;53.602;11.418;2023-02-16T00:18:49;101884.22;;;4.32;100.00
3206;BME280;1615;53.602;11.418;2023-02-16T00:21:15;101886.53;;;4.29;100.00
3206;BME280;1615;53.602;11.418;2023-02-16T00:23:41;101882.84;;;4.23;100.00
3206;BME280;1615;53.602;11.418;2023-02-16T00:26:29;101879.97;;;4.18;100.00
3206;BME280;1615;53.602;11.418;2023-02-16T00:28:56;101890.38;;;4.21;100.00
3206;BME280;1615;53.602;11.418;2023-02-16T00:31:26;101885.00;;;4.15;100.00
3206;BME280;1615;53.602;11.418;2023-02-16T00:33:53;101836.56;;;3.76;100.00
3206;BME280;1615;53.602;11.418;2023-02-16T00:36:19;101745.34;;;3.21;100.00
3206;BME280;1615;53.602;11.418;2023-02-16T00:38:44;101876.72;;;4.10;100.00
3206;BME280;1615;53.602;11.418;2023-02-16T00:41:16;101877.75;;;3.91;100.00
3206;BME280;1615;53.602;11.418;2023-02-16T00:44:01;101862.44;;;3.96;100.00
3206;BME280;1615;53.602;11.418;2023-02-16T00:46:27;101860.13;;;4.00;100.00
3206;BME280;1615;53.602;11.418;2023-02-16T00:48:52;101858.84;;;4.02;100.00
3206;BME280;1615;53.602;11.418;2023-02-16T00:51:18;101864.66;;;4.06;100.00
3206;BME280;1615;53.602;11.418;2023-02-16T00:53:43;101861.34;;;4.04;100.00
3206;BME280;1615;53.602;11.418;2023-02-16T00:56:12;101852.28;;;4.10;100.00
3206;BME280;1615;53.602;11.418;2023-02-16T00:58:41;101859.41;;;4.11;100.00
3206;BME280;1615;53.602;11.418;2023-02-16T01:01:10;101854.25;;;4.03;100.00
3206;BME280;1615;53.602;11.418;2023-02-16T01:03:37;101855.31;;;4.02;100.00
3206;BME280;1615;53.602;11.418;2023-02-16T01:06:02;101855.31;;;4.02;100.00
3206;BME280;1615;53.602;11.418;2023-02-16T01:08:46;101865.56;;;4.00;100.00
3206;BME280;1615;53.602;11.418;2023-02-16T01:11:30;101860.56;;;3.97;100.00
3206;BME280;1615;53.602;11.418;2023-02-16T01:13:56;101807.81;;;3.75;100.00
3206;BME280;1615;53.602;11.418;2023-02-16T01:16:24;101860.00;;;4.13;100.00
3206;BME280;1615;53.602;11.418;2023-02-16T01:18:50;101697.84;;;3.18;100.00
3206;BME280;1615;53.602;11.418;2023-02-16T01:21:16;101853.34;;;4.09;100.00
3206;BME280;1615;53.602;11.418;2023-02-16T01:23:43;101851.69;;;4.08;100.00
3206;BME280;1615;53.602;11.418;2023-02-16T01:26:16;101825.16;;;3.92;100.00
3206;BME280;1615;53.602;11.418;2023-02-16T01:28:42;101925.63;;;4.03;100.00
3206;BME280;1615;53.602;11.418;2023-02-16T01:31:12;101847.97;;;4.02;100.00
3206;BME280;1615;53.602;11.418;2023-02-16T01:33:38;101847.94;;;4.09;100.00
3206;BME280;1615;53.602;11.418;2023-02-16T01:36:04;101840.69;;;4.21;100.00
3206;BME280;1615;53.602;11.418;2023-02-16T01:38:29;101838.22;;;4.19;100.00
3206;BME280;1615;53.602;11.418;2023-02-16T01:41:17;101834.00;;;4.23;100.00
3206;BME280;1615;53.602;11.418;2023-02-16T01:44:10;101830.00;;;4.26;100.00
3206;BME280;1615;53.602;11.418;2023-02-16T01:46:45;101836.94;;;4.22;100.00
3206;BME280;1615;53.602;11.418;2023-02-16T01:49:14;101855.31;;;4.20;100.00
3206;BME280;1615;53.602;11.418;2023-02-16T01:52:39;101834.66;;;4.19;100.00
3206;BME280;1615;53.602;11.418;2023-02-16T01:54:45;101842.66;;;4.14;100.00
3206;BME280;1615;53.602;11.418;2023-02-16T02:03:27;101835.41;;;4.26;100.00
3206;BME280;1615;53.602;11.418;2023-02-16T02:06:14;101831.44;;;4.28;100.00
3206;BME280;1615;53.602;11.418;2023-02-16T02:08:47;101832.94;;;4.24;100.00
3206;BME280;1615;53.602;11.418;2023-02-16T02:11:31;101827.53;;;4.24;100.00
3206;BME280;1615;53.602;11.418;2023-02-16T02:14:07;101838.06;;;4.32;100.00
3206;BME280;1615;53.602;11.418;2023-02-16T02:16:34;101659.59;;;3.08;100.00
3206;BME280;1615;53.602;11.418;2023-02-16T02:18:59;101832.44;;;4.16;100.00
3206;BME280;1615;53.602;11.418;2023-02-16T02:25:03;101828.41;;;4.36;100.00
3206;BME280;1615;53.602;11.418;2023-02-16T02:27:46;101824.06;;;4.35;100.00
3206;BME280;1615;53.602;11.418;2023-02-16T02:38:26;101794.28;;;4.29;100.00
3206;BME280;1615;53.602;11.418;2023-02-16T02:41:10;101794.28;;;4.29;100.00
3206;BME280;1615;53.602;11.418;2023-02-16T02:43:43;101794.81;;;4.19;100.00
3206;BME280;1615;53.602;11.418;2023-02-16T02:46:19;101788.53;;;4.19;100.00
3206;BME280;1615;53.602;11.418;2023-02-16T02:48:48;101794.03;;;4.12;100.00
3206;BME280;1615;53.602;11.418;2023-02-16T02:51:14;101791.72;;;4.16;100.00
3206;BME280;1615;53.602;11.418;2023-02-16T02:54:08;101789.81;;;4.16;100.00
3206;BME280;1615;53.602;11.418;2023-02-16T02:57:01;101778.75;;;4.18;100.00
3206;BME280;1615;53.602;11.418;2023-02-16T03:00:00;101792.53;;;4.16;100.00
3206;BME280;1615;53.602;11.418;2023-02-16T03:03:05;101787.47;;;4.20;100.00
3206;BME280;1615;53.602;11.418;2023-02-16T03:05:32;101790.97;;;4.27;100.00
3206;BME280;1615;53.602;11.418;2023-02-16T03:08:07;101789.59;;;4.36;100.00
3206;BME280;1615;53.602;11.418;2023-02-16T03:10:40;101791.72;;;4.34;100.00
3206;BME280;1615;53.602;11.418;2023-02-16T03:13:30;101794.88;;;4.31;100.00
3206;BME280;1615;53.602;11.418;2023-02-16T03:16:05;101793.44;;;4.28;100.00
3206;BME280;1615;53.602;11.418;2023-02-16T03:18:33;101766.25;;;4.17;100.00
3206;BME280;1615;53.602;11.418;2023-02-16T03:21:20;101807.69;;;4.24;100.00
3206;BME280;1615;53.602;11.418;2023-02-16T03:24:07;101797.00;;;4.29;100.00
3206;BME280;1615;53.602;11.418;2023-02-16T03:26:52;101836.84;;;4.28;100.00
3206;BME280;1615;53.602;11.418;2023-02-16T03:29:37;101795.41;;;4.21;100.00
3206;BME280;1615;53.602;11.418;2023-02-16T03:32:03;101799.31;;;4.25;100.00
3206;BME280;1615;53.602;11.418;2023-02-16T03:34:29;101627.31;;;3.25;100.00
3206;BME280;1615;53.602;11.418;2023-02-16T03:36:57;101793.06;;;4.25;100.00
3206;BME280;1615;53.602;11.418;2023-02-16T03:39:25;101796.41;;;4.27;100.00
3206;BME280;1615;53.602;11.418;2023-02-16T03:41:52;101828.13;;;4.26;100.00
3206;BME280;1615;53.602;11.418;2023-02-16T03:44:18;101802.84;;;4.26;100.00
3206;BME280;1615;53.602;11.418;2023-02-16T03:46:45;101677.78;;;3.62;100.00
3206;BME280;1615;53.602;11.418;2023-02-16T03:49:10;101639.38;;;3.29;100.00
3206;BME280;1615;53.602;11.418;2023-02-16T03:51:36;101794.72;;;4.26;100.00
3206;BME280;1615;53.602;11.418;2023-02-16T03:54:01;101793.22;;;4.30;100.00
3206;BME280;1615;53.602;11.418;2023-02-16T03:56:26;101788.41;;;4.32;100.00
3206;BME280;1615;53.602;11.418;2023-02-16T03:58:52;101794.63;;;4.32;100.00
3206;BME280;1615;53.602;11.418;2023-02-16T04:01:17;101701.00;;;3.76;100.00
3206;BME280;1615;53.602;11.418;2023-02-16T04:03:42;101790.50;;;4.30;100.00
3206;BME280;1615;53.602;11.418;2023-02-16T04:06:08;101792.16;;;4.31;100.00
3206;BME280;1615;53.602;11.418;2023-02-16T04:08:33;101789.59;;;4.36;100.00
3206;BME280;1615;53.602;11.418;2023-02-16T04:10:58;101777.44;;;4.38;100.00
3206;BME280;1615;53.602;11.418;2023-02-16T04:13:24;101682.59;;;3.78;100.00
3206;BME280;1615;53.602;11.418;2023-02-16T04:15:50;101789.94;;;4.39;100.00
3206;BME280;1615;53.602;11.418;2023-02-16T04:18:15;101793.72;;;4.38;100.00
3206;BME280;1615;53.602;11.418;2023-02-16T04:20:41;101415.28;;;2.10;100.00
3206;BME280;1615;53.602;11.418;2023-02-16T04:23:06;101793.50;;;4.40;100.00
3206;BME280;1615;53.602;11.418;2023-02-16T04:25:32;101792.00;;;4.44;100.00
3206;BME280;1615;53.602;11.418;2023-02-16T04:27:58;101762.16;;;4.26;100.00
3206;BME280;1615;53.602;11.418;2023-02-16T04:30:27;101796.97;;;4.47;100.00
3206;BME280;1615;53.602;11.418;2023-02-16T04:32:53;101779.25;;;4.44;100.00
3206;BME280;1615;53.602;11.418;2023-02-16T04:35:18;101779.03;;;4.46;100.00
3206;BME280;1615;53.602;11.418;2023-02-16T04:37:44;101769.81;;;4.47;100.00
3206;BME280;1615;53.602;11.418;2023-02-16T04:40:14;101781.50;;;4.47;100.00
3206;BME280;1615;53.602;11.418;2023-02-16T04:42:41;101775.72;;;4.44;100.00
3206;BME280;1615;53.602;11.418;2023-02-16T04:45:07;101735.34;;;4.18;100.00
3206;BME280;1615;53.602;11.418;2023-02-16T04:47:32;101776.91;;;4.48;100.00
3206;BME280;1615;53.602;11.418;2023-02-16T04:49:58;101771.00;;;4.51;100.00
3206;BME280;1615;53.602;11.418;2023-02-16T04:52:23;101774.22;;;4.48;100.00
3206;BME280;1615;53.602;11.418;2023-02-16T04:54:48;101613.03;;;3.54;100.00
3206;BME280;1615;53.602;11.418;2023-02-16T04:57:14;101762.28;;;4.49;100.00
3206;BME280;1615;53.602;11.418;2023-02-16T04:59:39;101771.50;;;4.48;100.00
3206;BME280;1615;53.602;11.418;2023-02-16T05:02:05;101744.97;;;4.32;100.00
3206;BME280;1615;53.602;11.418;2023-02-16T05:04:30;101761.91;;;4.45;100.00
3206;BME280;1615;53.602;11.418;2023-02-16T05:06:55;101762.28;;;4.49;100.00
3206;BME280;1615;53.602;11.418;2023-02-16T05:09:20;101744.44;;;4.41;100.00
3206;BME280;1615;53.602;11.418;2023-02-16T05:11:46;101735.66;;;4.39;100.00
3206;BME280;1615;53.602;11.418;2023-02-16T05:14:32;101733.19;;;4.38;100.00
3206;BME280;1615;53.602;11.418;2023-02-16T05:17:21;101761.81;;;4.52;100.00
3206;BME280;1615;53.602;11.418;2023-02-16T05:19:52;101743.03;;;4.50;100.00
3206;BME280;1615;53.602;11.418;2023-02-16T05:22:18;101740.09;;;4.52;100.00
3206;BME280;1615;53.602;11.418;2023-02-16T05:24:44;101739.72;;;4.48;100.00
3206;BME280;1615;53.602;11.418;2023-02-16T05:27:12;101748.09;;;4.47;100.00
3206;BME280;1615;53.602;11.418;2023-02-16T05:29:38;101740.09;;;4.52;100.00
3206;BME280;1615;53.602;11.418;2023-02-16T05:32:03;101742.81;;;4.52;100.00
3206;BME280;1615;53.602;11.418;2023-02-16T05:34:29;101751.56;;;4.54;100.00
3206;BME280;1615;53.602;11.418;2023-02-16T05:36:54;101754.41;;;4.59;100.00
3206;BME280;1615;53.602;11.418;2023-02-16T05:39:20;101745.81;;;4.62;100.00
3206;BME280;1615;53.602;11.418;2023-02-16T05:41:45;101753.72;;;4.63;100.00
3206;BME280;1615;53.602;11.418;2023-02-16T05:44:11;101749.56;;;4.61;100.00
3206;BME280;1615;53.602;11.418;2023-02-16T05:46:38;101738.50;;;4.62;100.00
3206;BME280;1615;53.602;11.418;2023-02-16T05:49:05;101745.81;;;4.62;100.00
3206;BME280;1615;53.602;11.418;2023-02-16T05:51:30;101728.94;;;4.42;100.00
3206;BME280;1615;53.602;11.418;2023-02-16T05:53:56;101750.94;;;4.52;100.00
3206;BME280;1615;53.602;11.418;2023-02-16T05:56:22;101756.28;;;4.58;100.00
3206;BME280;1615;53.602;11.418;2023-02-16T05:58:47;101754.88;;;4.56;100.00
3206;BME280;1615;53.602;11.418;2023-02-16T06:01:13;101755.94;;;4.55;100.00
3206;BME280;1615;53.602;11.418;2023-02-16T06:03:38;101772.31;;;4.48;100.00
3206;BME280;1615;53.602;11.418;2023-02-16T06:06:04;101754.72;;;4.51;100.00
3206;BME280;1615;53.602;11.418;2023-02-16T06:08:31;101748.09;;;4.47;100.00
3206;BME280;1615;53.602;11.418;2023-02-16T06:10:57;101757.16;;;4.41;100.00
3206;BME280;1615;53.602;11.418;2023-02-16T06:13:23;101755.00;;;4.31;100.00
3206;BME280;1615;53.602;11.418;2023-02-16T06:15:54;101754.16;;;4.31;100.00
3206;BME280;1615;53.602;11.418;2023-02-16T06:18:20;101777.44;;;4.38;100.00
3206;BME280;1615;53.602;11.418;2023-02-16T06:20:45;101746.53;;;4.39;100.00
3206;BME280;1615;53.602;11.418;2023-02-16T06:23:12;101675.53;;;3.95;100.00
3206;BME280;1615;53.602;11.418;2023-02-16T06:25:40;101754.00;;;4.44;100.00
3206;BME280;1615;53.602;11.418;2023-02-16T06:28:06;101744.56;;;4.46;100.00
3206;BME280;1615;53.602;11.418;2023-02-16T06:30:31;101744.78;;;4.45;100.00
3206;BME280;1615;53.602;11.418;2023-02-16T06:32:57;101744.34;;;4.48;100.00
3206;BME280;1615;53.602;11.418;2023-02-16T06:35:22;101754.72;;;4.51;100.00
3206;BME280;1615;53.602;11.418;2023-02-16T06:37:48;101747.66;;;4.50;100.00
3206;BME280;1615;53.602;11.418;2023-02-16T06:40:13;101746.34;;;4.52;100.00
3206;BME280;1615;53.602;11.418;2023-02-16T06:42:41;101748.84;;;4.54;100.00
3206;BME280;1615;53.602;11.418;2023-02-16T06:45:07;101747.16;;;4.53;100.00
3206;BME280;1615;53.602;11.418;2023-02-16T06:47:33;101759.25;;;4.57;100.00
3206;BME280;1615;53.602;11.418;2023-02-16T06:49:58;101755.00;;;4.61;100.00
3206;BME280;1615;53.602;11.418;2023-02-16T06:52:24;101764.00;;;4.61;100.00
3206;BME280;1615;53.602;11.418;2023-02-16T06:54:49;101778.38;;;4.62;100.00
3206;BME280;1615;53.602;11.418;2023-02-16T06:57:14;101776.88;;;4.66;100.00
3206;BME280;1615;53.602;11.418;2023-02-16T06:59:40;101773.69;;;4.69;100.00
3206;BME280;1615;53.602;11.418;2023-02-16T07:02:05;101769.94;;;4.70;100.00
3206;BME280;1615;53.602;11.418;2023-02-16T07:04:30;101765.22;;;4.77;100.00
3206;BME280;1615;53.602;11.418;2023-02-16T07:06:56;101774.56;;;4.81;100.00
3206;BME280;1615;53.602;11.418;2023-02-16T07:09:21;101646.56;;;4.07;100.00
3206;BME280;1615;53.602;11.418;2023-02-16T07:11:47;101773.44;;;4.88;100.00
3206;BME280;1615;53.602;11.418;2023-02-16T07:14:12;101779.22;;;4.92;100.00
3206;BME280;1615;53.602;11.418;2023-02-16T07:16:37;101766.84;;;4.96;100.00
3206;BME280;1615;53.602;11.418;2023-02-16T07:19:03;101761.50;;;5.01;100.00
3206;BME280;1615;53.602;11.418;2023-02-16T07:21:29;101756.47;;;5.04;100.00
3206;BME280;1615;53.602;11.418;2023-02-16T07:23:55;101745.47;;;5.11;100.00
3206;BME280;1615;53.602;11.418;2023-02-16T07:26:20;101722.16;;;5.03;100.00
3206;BME280;1615;53.602;11.418;2023-02-16T07:28:45;101739.22;;;5.22;100.00
3206;BME280;1615;53.602;11.418;2023-02-16T07:31:12;101738.53;;;5.26;100.00
3206;BME280;1615;53.602;11.418;2023-02-16T07:33:38;101742.19;;;5.32;100.00
3206;BME280;1615;53.602;11.418;2023-02-16T07:36:04;101740.78;;;5.41;100.00
3206;BME280;1615;53.602;11.418;2023-02-16T07:38:30;101747.63;;;5.43;100.00
3206;BME280;1615;53.602;11.418;2023-02-16T07:40:56;101741.03;;;5.51;100.00
3206;BME280;1615;53.602;11.418;2023-02-16T07:43:22;101737.47;;;5.62;100.00
3206;BME280;1615;53.602;11.418;2023-02-16T07:45:47;101751.44;;;5.65;100.00
3206;BME280;1615;53.602;11.418;2023-02-16T07:48:13;101741.50;;;5.71;100.00
3206;BME280;1615;53.602;11.418;2023-02-16T07:50:38;101760.78;;;5.81;100.00
3206;BME280;1615;53.602;11.418;2023-02-16T07:53:04;101753.00;;;5.84;100.00
3206;BME280;1615;53.602;11.418;2023-02-16T07:55:29;101750.75;;;5.93;100.00
3206;BME280;1615;53.602;11.418;2023-02-16T07:57:54;101743.84;;;6.02;100.00
3206;BME280;1615;53.602;11.418;2023-02-16T08:00:22;101721.03;;;5.91;100.00
3206;BME280;1615;53.602;11.418;2023-02-16T08:02:48;101748.81;;;6.05;100.00
3206;BME280;1615;53.602;11.418;2023-02-16T08:05:14;101744.78;;;6.07;100.00
3206;BME280;1615;53.602;11.418;2023-02-16T08:07:39;101753.78;;;6.08;100.00
3206;BME280;1615;53.602;11.418;2023-02-16T08:10:06;101710.63;;;5.88;100.00
3206;BME280;1615;53.602;11.418;2023-02-16T08:12:32;101751.16;;;6.13;100.00
3206;BME280;1615;53.602;11.418;2023-02-16T08:14:57;101834.63;;;6.19;100.00
3206;BME280;1615;53.602;11.418;2023-02-16T08:17:23;101752.69;;;6.20;100.00
3206;BME280;1615;53.602;11.418;2023-02-16T08:19:49;101740.97;;;6.20;100.00
3206;BME280;1615;53.602;11.418;2023-02-16T08:22:15;101721.81;;;6.15;100.00
3206;BME280;1615;53.602;11.418;2023-02-16T08:24:41;101742.84;;;6.31;100.00
3206;BME280;1615;53.602;11.418;2023-02-16T08:27:07;101734.78;;;6.36;100.00
3206;BME280;1615;53.602;11.418;2023-02-16T08:29:33;101738.69;;;6.40;100.00
3206;BME280;1615;53.602;11.418;2023-02-16T08:31:58;101741.41;;;6.40;100.00
3206;BME280;1615;53.602;11.418;2023-02-16T08:34:24;101740.91;;;6.43;100.00
3206;BME280;1615;53.602;11.418;2023-02-16T08:36:52;101736.72;;;6.52;100.00
3206;BME280;1615;53.602;11.418;2023-02-16T08:39:27;101736.09;;;6.61;100.00
3206;BME280;1615;53.602;11.418;2023-02-16T08:41:53;101729.75;;;6.72;100.00
3206;BME280;1615;53.602;11.418;2023-02-16T08:44:20;101730.19;;;6.81;100.00
3206;BME280;1615;53.602;11.418;2023-02-16T08:46:47;101719.56;;;6.96;100.00
3206;BME280;1615;53.602;11.418;2023-02-16T08:49:14;101723.34;;;7.11;100.00
3206;BME280;1615;53.602;11.418;2023-02-16T08:51:43;101727.66;;;7.24;100.00
3206;BME280;1615;53.602;11.418;2023-02-16T08:54:14;101733.19;;;7.29;100.00
3206;BME280;1615;53.602;11.418;2023-02-16T08:56:39;101734.44;;;7.38;100.00
3206;BME280;1615;53.602;11.418;2023-02-16T08:59:09;101734.09;;;7.51;100.00
3206;BME280;1615;53.602;11.418;2023-02-16T09:01:35;101732.03;;;7.58;100.00
3206;BME280;1615;53.602;11.418;2023-02-16T09:04:00;101725.25;;;7.60;100.00
3206;BME280;1615;53.602;11.418;2023-02-16T09:06:25;101727.22;;;7.65;100.00
3206;BME280;1615;53.602;11.418;2023-02-16T09:08:53;101726.69;;;7.84;100.00
3206;BME280;1615;53.602;11.418;2023-02-16T09:11:19;101628.63;;;7.40;100.00
3206;BME280;1615;53.602;11.418;2023-02-16T09:13:45;101713.09;;;7.89;100.00
3206;BME280;1615;53.602;11.418;2023-02-16T09:16:19;101711.22;;;7.90;100.00
3206;BME280;1615;53.602;11.418;2023-02-16T09:18:45;101717.31;;;7.97;100.00
3206;BME280;1615;53.602;11.418;2023-02-16T09:21:17;101617.72;;;7.40;100.00
3206;BME280;1615;53.602;11.418;2023-02-16T09:23:44;101724.44;;;8.19;100.00
3206;BME280;1615;53.602;11.418;2023-02-16T09:26:15;101713.94;;;8.28;100.00
3206;BME280;1615;53.602;11.418;2023-02-16T09:28:41;101605.44;;;7.59;100.00
3206;BME280;1615;53.602;11.418;2023-02-16T09:31:12;101716.84;;;8.43;100.00
3206;BME280;1615;53.602;11.418;2023-02-16T09:33:39;101726.75;;;8.49;100.00
3206;BME280;1615;53.602;11.418;2023-02-16T09:36:07;101543.13;;;7.51;100.00
3206;BME280;1615;53.602;11.418;2023-02-16T09:38:34;101716.00;;;8.69;100.00
3206;BME280;1615;53.602;11.418;2023-02-16T09:41:22;101725.34;;;8.73;100.00
3206;BME280;1615;53.602;11.418;2023-02-16T09:46:24;101723.19;;;8.75;100.00
3206;BME280;1615;53.602;11.418;2023-02-16T09:48:50;101725.00;;;8.91;100.00
3206;BME280;1615;53.602;11.418;2023-02-16T09:51:24;101715.06;;;8.80;100.00
3206;BME280;1615;53.602;11.418;2023-02-16T09:53:58;101677.97;;;8.62;100.00
3206;BME280;1615;53.602;11.418;2023-02-16T09:56:36;101718.50;;;8.97;100.00
3206;BME280;1615;53.602;11.418;2023-02-16T09:59:26;101722.94;;;9.03;100.00
3206;BME280;1615;53.602;11.418;2023-02-16T10:05:01;101721.31;;;9.07;100.00
3206;BME280;1615;53.602;11.418;2023-02-16T10:07:59;101733.31;;;9.06;100.00
3206;BME280;1615;53.602;11.418;2023-02-16T10:13:36;101713.63;;;9.04;100.00
3206;BME280;1615;53.602;11.418;2023-02-16T10:16:10;101733.25;;;8.96;100.00
3206;BME280;1615;53.602;11.418;2023-02-16T10:18:39;101703.72;;;8.98;100.00
3206;BME280;1615;53.602;11.418;2023-02-16T10:21:12;101627.31;;;8.55;100.00
3206;BME280;1615;53.602;11.418;2023-02-16T10:23:44;101718.63;;;9.12;100.00
3206;BME280;1615;53.602;11.418;2023-02-16T10:28:50;101706.22;;;8.99;100.00
3206;BME280;1615;53.602;11.418;2023-02-16T10:47:41;101721.75;;;9.62;100.00
3206;BME280;1615;53.602;11.418;2023-02-16T10:50:40;101721.75;;;9.62;100.00
3206;BME280;1615;53.602;11.418;2023-02-16T10:53:15;101783.25;;;9.49;100.00
3206;BME280;1615;53.602;11.418;2023-02-16T10:55:42;101729.09;;;9.56;100.00
3206;BME280;1615;53.602;11.418;2023-02-16T10:58:40;101732.16;;;9.60;100.00
3206;BME280;1615;53.602;11.418;2023-02-16T11:01:21;101731.03;;;9.56;100.00
3206;BME280;1615;53.602;11.418;2023-02-16T11:03:54;101728.91;;;9.68;100.00
3206;BME280;1615;53.602;11.418;2023-02-16T11:06:22;101722.34;;;9.69;100.00
3206;BME280;1615;53.602;11.418;2023-02-16T11:08:54;101725.16;;;9.79;100.00
3206;BME280;1615;53.602;11.418;2023-02-16T11:11:26;101728.72;;;9.79;100.00
3206;BME280;1615;53.602;11.418;2023-02-16T11:14:06;101724.88;;;9.80;100.00
3206;BME280;1615;53.602;11.418;2023-02-16T11:16:33;101679.00;;;9.56;100.00
3206;BME280;1615;53.602;11.418;2023-02-16T11:19:02;101736.72;;;9.91;100.00
3206;BME280;1615;53.602;11.418;2023-02-16T11:21:43;101725.00;;;10.00;100.00
3206;BME280;1615;53.602;11.418;2023-02-16T11:24:13;101713.75;;;10.02;100.00
3206;BME280;1615;53.602;11.418;2023-02-16T11:29:29;101674.53;;;9.86;100.00
3206;BME280;1615;53.602;11.418;2023-02-16T11:31:56;101709.00;;;10.24;100.00
3206;BME280;1615;53.602;11.418;2023-02-16T11:34:28;101708.97;;;10.29;100.00
3206;BME280;1615;53.602;11.418;2023-02-16T11:37:46;101811.00;;;10.36;100.00
3206;BME280;1615;53.602;11.418;2023-02-16T11:39:52;101654.16;;;10.19;100.00
3206;BME280;1615;53.602;11.418;2023-02-16T11:42:28;101696.22;;;10.64;100.00
3206;BME280;1615;53.602;11.418;2023-02-16T11:44:57;101700.06;;;10.73;100.00
3206;BME280;1615;53.602;11.418;2023-02-16T11:47:33;101695.16;;;10.85;100.00
3206;BME280;1615;53.602;11.418;2023-02-16T11:52:49;101696.00;;;10.96;100.00
3206;BME280;1615;53.602;11.418;2023-02-16T11:55:22;101677.63;;;10.91;100.00
3206;BME280;1615;53.602;11.418;2023-02-16T11:57:47;101685.56;;;11.08;100.00
3206;BME280;1615;53.602;11.418;2023-02-16T12:00:18;101687.47;;;11.27;100.00
3206;BME280;1615;53.602;11.418;2023-02-16T12:11:17;101703.94;;;11.27;100.00
3206;BME280;1615;53.602;11.418;2023-02-16T12:14:12;101689.94;;;11.14;100.00
3206;BME280;1615;53.602;11.418;2023-02-16T12:16:52;101711.91;;;11.29;100.00
3206;BME280;1615;53.602;11.418;2023-02-16T12:19:42;101703.41;;;11.30;100.00
3206;BME280;1615;53.602;11.418;2023-02-16T12:22:30;101697.09;;;11.35;100.00
3206;BME280;1615;53.602;11.418;2023-02-16T12:25:16;101648.78;;;11.14;100.00
3206;BME280;1615;53.602;11.418;2023-02-16T12:27:59;101605.44;;;10.96;100.00
3206;BME280;1615;53.602;11.418;2023-02-16T12:30:49;101694.06;;;11.56;100.00
3206;BME280;1615;53.602;11.418;2023-02-16T12:33:46;101680.88;;;11.63;100.00
3206;BME280;1615;53.602;11.418;2023-02-16T12:39:15;101635.03;;;11.34;100.00
3206;BME280;1615;53.602;11.418;2023-02-16T12:44:42;101674.59;;;11.63;100.00
3206;BME280;1615;53.602;11.418;2023-02-16T12:47:15;101611.16;;;11.34;100.00
3206;BME280;1615;53.602;11.418;2023-02-16T12:49:53;101672.63;;;11.68;100.00
3206;BME280;1615;53.602;11.418;2023-02-16T12:55:29;101663.00;;;11.76;100.00
3206;BME280;1615;53.602;11.418;2023-02-16T13:01:10;101654.75;;;11.71;100.00
3206;BME280;1615;53.602;11.418;2023-02-16T13:03:43;101658.09;;;11.68;100.00
3206;BME280;1615;53.602;11.418;2023-02-16T13:11:35;101659.72;;;11.49;100.00
3206;BME280;1615;53.602;11.418;2023-02-16T13:14:08;101653.72;;;11.47;100.00
3206;BME280;1615;53.602;11.418;2023-02-16T13:19:03;101654.50;;;11.52;100.00
3206;BME280;1615;53.602;11.418;2023-02-16T13:30:38;101635.53;;;11.56;100.00
3206;BME280;1615;53.602;11.418;2023-02-16T13:41:55;101623.44;;;11.57;100.00
3206;BME280;1615;53.602;11.418;2023-02-16T13:44:31;101629.78;;;11.52;100.00
3206;BME280;1615;53.602;11.418;2023-02-16T13:47:01;101624.56;;;11.56;100.00
3206;BME280;1615;53.602;11.418;2023-02-16T13:49:34;101620.19;;;11.60;100.00
3206;BME280;1615;53.602;11.418;2023-02-16T13:52:03;101579.59;;;11.42;100.00
3206;BME280;1615;53.602;11.418;2023-02-16T13:54:33;101613.06;;;11.59;100.00
3206;BME280;1615;53.602;11.418;2023-02-16T13:57:01;101621.28;;;11.64;100.00
3206;BME280;1615;53.602;11.418;2023-02-16T14:01:56;101614.41;;;11.66;100.00
3206;BME280;1615;53.602;11.418;2023-02-16T14:06:51;101618.53;;;11.49;100.00
3206;BME280;1615;53.602;11.418;2023-02-16T14:20:24;101601.22;;;11.58;100.00
3206;BME280;1615;53.602;11.418;2023-02-16T14:22:55;101602.59;;;11.66;100.00
3206;BME280;1615;53.602;11.418;2023-02-16T14:28:12;101607.78;;;11.77;100.00
3206;BME280;1615;53.602;11.418;2023-02-16T14:30:57;101566.41;;;11.39;100.00
3206;BME280;1615;53.602;11.418;2023-02-16T14:38:29;101586.72;;;11.43;100.00
3206;BME280;1615;53.602;11.418;2023-02-16T14:40:57;101605.34;;;11.51;100.00
3206;BME280;1615;53.602;11.418;2023-02-16T14:43:30;101603.16;;;11.53;100.00
3206;BME280;1615;53.602;11.418;2023-02-16T14:51:40;101610.34;;;11.34;100.00
3206;BME280;1615;53.602;11.418;2023-02-16T14:57:03;101601.56;;;11.27;100.00
3206;BME280;1615;53.602;11.418;2023-02-16T14:59:51;101594.69;;;11.34;100.00
3206;BME280;1615;53.602;11.418;2023-02-16T15:02:28;101597.72;;;11.38;100.00
3206;BME280;1615;53.602;11.418;2023-02-16T15:04:54;101603.47;;;11.41;100.00
3206;BME280;1615;53.602;11.418;2023-02-16T15:07:21;101608.16;;;11.36;100.00
3206;BME280;1615;53.602;11.418;2023-02-16T15:09:52;101601.84;;;11.35;100.00
3206;BME280;1615;53.602;11.418;2023-02-16T15:12:25;101597.13;;;11.41;100.00
3206;BME280;1615;53.602;11.418;2023-02-16T15:14:52;101589.19;;;11.39;100.00
3206;BME280;1615;53.602;11.418;2023-02-16T15:19:57;101585.06;;;11.42;100.00
3206;BME280;1615;53.602;11.418;2023-02-16T15:22:25;101593.88;;;11.34;100.00
3206;BME280;1615;53.602;11.418;2023-02-16T15:25:04;101592.25;;;11.23;100.00
3206;BME280;1615;53.602;11.418;2023-02-16T15:27:32;101593.63;;;11.20;100.00
3206;BME280;1615;53.602;11.418;2023-02-16T15:32:29;101586.75;;;11.23;100.00